sensor_id;sensor_type;location;lat;lon;timestamp;P1;durP1;ratioP1;P2;durP2;ratioP2
10491;SDS011;5293;51.464;-2.566;2023-05-07T00:00:08;19.13;;;9.00;;
10491;SDS011;5293;51.464;-2.566;2023-05-07T00:02:34;19.07;;;8.10;;
10491;SDS011;5293;51.464;-2.566;2023-05-07T00:05:01;20.30;;;8.07;;
10491;SDS011;5293;51.464;-2.566;2023-05-07T00:07:27;15.43;;;8.77;;
10491;SDS011;5293;51.464;-2.566;2023-05-07T00:09:53;20.40;;;8.73;;
10491;SDS011;5293;51.464;-2.566;2023-05-07T00:12:19;20.03;;;8.67;;
10491;SDS011;5293;51.464;-2.566;2023-05-07T00:14:45;20.23;;;9.27;;
10491;SDS011;5293;51.464;-2.566;2023-05-07T00:17:11;22.40;;;9.83;;
10491;SDS011;5293;51.464;-2.566;2023-05-07T00:19:36;18.93;;;9.33;;
10491;SDS011;5293;51.464;-2.566;2023-05-07T00:22:02;19.70;;;9.77;;
10491;SDS011;5293;51.464;-2.566;2023-05-07T00:24:28;28.10;;;10.07;;
10491;SDS011;5293;51.464;-2.566;2023-05-07T00:26:53;22.30;;;10.07;;
10491;SDS011;5293;51.464;-2.566;2023-05-07T00:29:19;21.30;;;9.57;;
10491;SDS011;5293;51.464;-2.566;2023-05-07T00:31:45;19.33;;;10.67;;
10491;SDS011;5293;51.464;-2.566;2023-05-07T00:34:10;23.37;;;10.97;;
10491;SDS011;5293;51.464;-2.566;2023-05-07T00:36:36;24.73;;;9.90;;
10491;SDS011;5293;51.464;-2.566;2023-05-07T00:39:02;24.10;;;10.33;;
10491;SDS011;5293;51.464;-2.566;2023-05-07T00:41:29;20.10;;;9.47;;
10491;SDS011;5293;51.464;-2.566;2023-05-07T00:43:56;24.43;;;10.77;;
10491;SDS011;5293;51.464;-2.566;2023-05-07T00:46:21;23.03;;;11.20;;
10491;SDS011;5293;51.464;-2.566;2023-05-07T00:48:48;17.57;;;10.13;;
10491;SDS011;5293;51.464;-2.566;2023-05-07T00:51:15;27.07;;;10.60;;
10491;SDS011;5293;51.464;-2.566;2023-05-07T00:53:42;23.93;;;11.40;;
10491;SDS011;5293;51.464;-2.566;2023-05-07T00:56:08;18.37;;;10.87;;
10491;SDS011;5293;51.464;-2.566;2023-05-07T00:58:33;25.40;;;12.07;;
10491;SDS011;5293;51.464;-2.566;2023-05-07T01:00:59;22.30;;;11.40;;
10491;SDS011;5293;51.464;-2.566;2023-05-07T01:03:25;24.67;;;11.60;;
10491;SDS011;5293;51.464;-2.566;2023-05-07T01:05:51;27.27;;;12.00;;
10491;SDS011;5293;51.464;-2.566;2023-05-07T01:08:18;21.97;;;11.60;;
10491;SDS011;5293;51.464;-2.566;2023-05-07T01:10:45;22.33;;;11.47;;
10491;SDS011;5293;51.464;-2.566;2023-05-07T01:13:11;23.13;;;11.30;;
10491;SDS011;5293;51.464;-2.566;2023-05-07T01:15:38;21.90;;;11.53;;
10491;SDS011;5293;51.464;-2.566;2023-05-07T01:18:06;26.07;;;12.30;;
10491;SDS011;5293;51.464;-2.566;2023-05-07T01:20:32;21.97;;;11.13;;
10491;SDS011;5293;51.464;-2.566;2023-05-07T01:22:57;27.53;;;11.67;;
10491;SDS011;5293;51.464;-2.566;2023-05-07T01:25:25;23.00;;;12.93;;
10491;SDS011;5293;51.464;-2.566;2023-05-07T01:27:51;28.27;;;12.87;;
10491;SDS011;5293;51.464;-2.566;2023-05-07T01:30:17;23.30;;;12.37;;
10491;SDS011;5293;51.464;-2.566;2023-05-07T01:32:52;29.07;;;13.23;;
10491;SDS011;5293;51.464;-2.566;2023-05-07T01:35:25;22.40;;;11.70;;
10491;SDS011;5293;51.464;-2.566;2023-05-07T01:37:54;24.90;;;12.30;;
10491;SDS011;5293;51.464;-2.566;2023-05-07T01:40:20;21.53;;;12.80;;
10491;SDS011;5293;51.464;-2.566;2023-05-07T01:42:46;19.53;;;12.63;;
10491;SDS011;5293;51.464;-2.566;2023-05-07T01:45:13;21.60;;;11.47;;
10491;SDS011;5293;51.464;-2.566;2023-05-07T01:47:39;21.20;;;12.27;;
10491;SDS011;5293;51.464;-2.566;2023-05-07T01:50:06;30.40;;;13.43;;
10491;SDS011;5293;51.464;-2.566;2023-05-07T01:52:39;18.23;;;11.00;;
10491;SDS011;5293;51.464;-2.566;2023-05-07T01:55:05;21.63;;;10.83;;
10491;SDS011;5293;51.464;-2.566;2023-05-07T01:57:31;20.27;;;11.60;;
10491;SDS011;5293;51.464;-2.566;2023-05-07T01:59:57;20.67;;;11.20;;
10491;SDS011;5293;51.464;-2.566;2023-05-07T02:02:23;25.67;;;11.63;;
10491;SDS011;5293;51.464;-2.566;2023-05-07T02:04:48;18.37;;;10.37;;
10491;SDS011;5293;51.464;-2.566;2023-05-07T02:07:14;18.17;;;11.43;;
10491;SDS011;5293;51.464;-2.566;2023-05-07T02:09:40;21.03;;;10.87;;
10491;SDS011;5293;51.464;-2.566;2023-05-07T02:12:05;20.90;;;11.30;;
10491;SDS011;5293;51.464;-2.566;2023-05-07T02:14:31;20.67;;;11.33;;
10491;SDS011;5293;51.464;-2.566;2023-05-07T02:16:57;16.47;;;10.33;;
10491;SDS011;5293;51.464;-2.566;2023-05-07T02:19:22;20.60;;;11.70;;
10491;SDS011;5293;51.464;-2.566;2023-05-07T02:21:48;17.70;;;10.23;;
10491;SDS011;5293;51.464;-2.566;2023-05-07T02:24:14;19.10;;;10.67;;
10491;SDS011;5293;51.464;-2.566;2023-05-07T02:26:40;19.13;;;10.37;;
10491;SDS011;5293;51.464;-2.566;2023-05-07T02:29:06;18.80;;;10.70;;
10491;SDS011;5293;51.464;-2.566;2023-05-07T02:31:32;19.33;;;10.80;;
10491;SDS011;5293;51.464;-2.566;2023-05-07T02:33:59;19.37;;;10.20;;
10491;SDS011;5293;51.464;-2.566;2023-05-07T02:36:25;15.63;;;9.47;;
10491;SDS011;5293;51.464;-2.566;2023-05-07T02:38:51;19.73;;;10.03;;
10491;SDS011;5293;51.464;-2.566;2023-05-07T02:41:17;21.00;;;10.53;;
10491;SDS011;5293;51.464;-2.566;2023-05-07T02:43:43;19.37;;;10.47;;
10491;SDS011;5293;51.464;-2.566;2023-05-07T02:46:08;16.27;;;8.97;;
10491;SDS011;5293;51.464;-2.566;2023-05-07T02:48:35;20.23;;;11.00;;
10491;SDS011;5293;51.464;-2.566;2023-05-07T02:51:01;16.00;;;9.73;;
10491;SDS011;5293;51.464;-2.566;2023-05-07T02:53:27;18.57;;;10.27;;
10491;SDS011;5293;51.464;-2.566;2023-05-07T02:55:55;15.13;;;9.53;;
10491;SDS011;5293;51.464;-2.566;2023-05-07T02:58:24;15.63;;;9.50;;
10491;SDS011;5293;51.464;-2.566;2023-05-07T03:00:50;16.83;;;10.00;;
10491;SDS011;5293;51.464;-2.566;2023-05-07T03:03:16;17.87;;;10.37;;
10491;SDS011;5293;51.464;-2.566;2023-05-07T03:05:42;19.27;;;10.70;;
10491;SDS011;5293;51.464;-2.566;2023-05-07T03:08:08;21.50;;;11.93;;
10491;SDS011;5293;51.464;-2.566;2023-05-07T03:10:34;20.07;;;11.07;;
10491;SDS011;5293;51.464;-2.566;2023-05-07T03:13:01;19.77;;;10.73;;
10491;SDS011;5293;51.464;-2.566;2023-05-07T03:15:26;21.10;;;12.03;;
10491;SDS011;5293;51.464;-2.566;2023-05-07T03:17:52;21.53;;;11.23;;
10491;SDS011;5293;51.464;-2.566;2023-05-07T03:20:18;19.67;;;11.73;;
10491;SDS011;5293;51.464;-2.566;2023-05-07T03:22:43;19.23;;;10.73;;
10491;SDS011;5293;51.464;-2.566;2023-05-07T03:25:09;20.50;;;11.20;;
10491;SDS011;5293;51.464;-2.566;2023-05-07T03:27:35;17.47;;;11.50;;
10491;SDS011;5293;51.464;-2.566;2023-05-07T03:30:01;19.53;;;11.43;;
10491;SDS011;5293;51.464;-2.566;2023-05-07T03:32:27;21.63;;;11.47;;
10491;SDS011;5293;51.464;-2.566;2023-05-07T03:34:53;18.63;;;11.27;;
10491;SDS011;5293;51.464;-2.566;2023-05-07T03:37:18;18.60;;;11.13;;
10491;SDS011;5293;51.464;-2.566;2023-05-07T03:39:44;17.37;;;11.47;;
10491;SDS011;5293;51.464;-2.566;2023-05-07T03:42:10;23.17;;;12.43;;
10491;SDS011;5293;51.464;-2.566;2023-05-07T03:44:36;19.33;;;11.47;;
10491;SDS011;5293;51.464;-2.566;2023-05-07T03:47:02;21.27;;;11.23;;
10491;SDS011;5293;51.464;-2.566;2023-05-07T03:49:28;20.53;;;12.03;;
10491;SDS011;5293;51.464;-2.566;2023-05-07T03:51:53;20.67;;;11.80;;
10491;SDS011;5293;51.464;-2.566;2023-05-07T03:54:19;22.17;;;13.13;;
10491;SDS011;5293;51.464;-2.566;2023-05-07T03:56:45;22.97;;;13.23;;
10491;SDS011;5293;51.464;-2.566;2023-05-07T03:59:11;32.33;;;15.00;;
10491;SDS011;5293;51.464;-2.566;2023-05-07T04:01:38;29.53;;;16.03;;
10491;SDS011;5293;51.464;-2.566;2023-05-07T04:04:03;29.57;;;15.73;;
10491;SDS011;5293;51.464;-2.566;2023-05-07T04:06:29;32.37;;;15.73;;
10491;SDS011;5293;51.464;-2.566;2023-05-07T04:08:55;34.67;;;18.03;;
10491;SDS011;5293;51.464;-2.566;2023-05-07T04:11:21;31.73;;;16.50;;
10491;SDS011;5293;51.464;-2.566;2023-05-07T04:13:46;33.87;;;17.13;;
10491;SDS011;5293;51.464;-2.566;2023-05-07T04:16:12;36.83;;;17.07;;
10491;SDS011;5293;51.464;-2.566;2023-05-07T04:18:38;31.73;;;16.03;;
10491;SDS011;5293;51.464;-2.566;2023-05-07T04:21:03;36.20;;;17.90;;
10491;SDS011;5293;51.464;-2.566;2023-05-07T04:23:29;31.93;;;16.43;;
10491;SDS011;5293;51.464;-2.566;2023-05-07T04:25:55;26.67;;;15.83;;
10491;SDS011;5293;51.464;-2.566;2023-05-07T04:28:22;32.47;;;16.73;;
10491;SDS011;5293;51.464;-2.566;2023-05-07T04:30:48;31.40;;;16.03;;
10491;SDS011;5293;51.464;-2.566;2023-05-07T04:33:14;34.40;;;15.73;;
10491;SDS011;5293;51.464;-2.566;2023-05-07T04:35:42;35.27;;;17.67;;
10491;SDS011;5293;51.464;-2.566;2023-05-07T04:38:07;28.07;;;16.30;;
10491;SDS011;5293;51.464;-2.566;2023-05-07T04:40:35;29.73;;;16.73;;
10491;SDS011;5293;51.464;-2.566;2023-05-07T04:43:01;28.33;;;16.43;;
10491;SDS011;5293;51.464;-2.566;2023-05-07T04:45:26;34.67;;;16.43;;
10491;SDS011;5293;51.464;-2.566;2023-05-07T04:47:52;26.53;;;16.03;;
10491;SDS011;5293;51.464;-2.566;2023-05-07T04:50:17;29.40;;;16.23;;
10491;SDS011;5293;51.464;-2.566;2023-05-07T04:52:45;31.30;;;17.97;;
10491;SDS011;5293;51.464;-2.566;2023-05-07T04:55:10;33.67;;;18.43;;
10491;SDS011;5293;51.464;-2.566;2023-05-07T04:57:36;28.23;;;16.50;;
10491;SDS011;5293;51.464;-2.566;2023-05-07T05:00:04;33.87;;;17.33;;
10491;SDS011;5293;51.464;-2.566;2023-05-07T05:02:33;37.03;;;17.20;;
10491;SDS011;5293;51.464;-2.566;2023-05-07T05:04:59;31.33;;;16.53;;
10491;SDS011;5293;51.464;-2.566;2023-05-07T05:07:26;28.13;;;15.13;;
10491;SDS011;5293;51.464;-2.566;2023-05-07T05:09:52;28.33;;;13.73;;
10491;SDS011;5293;51.464;-2.566;2023-05-07T05:12:17;18.70;;;12.07;;
10491;SDS011;5293;51.464;-2.566;2023-05-07T05:14:43;26.43;;;12.97;;
10491;SDS011;5293;51.464;-2.566;2023-05-07T05:17:09;22.93;;;12.17;;
10491;SDS011;5293;51.464;-2.566;2023-05-07T05:19:34;24.80;;;14.07;;
10491;SDS011;5293;51.464;-2.566;2023-05-07T05:22:00;22.63;;;12.70;;
10491;SDS011;5293;51.464;-2.566;2023-05-07T05:24:29;26.40;;;13.77;;
10491;SDS011;5293;51.464;-2.566;2023-05-07T05:26:55;28.13;;;13.87;;
10491;SDS011;5293;51.464;-2.566;2023-05-07T05:29:21;19.33;;;12.57;;
10491;SDS011;5293;51.464;-2.566;2023-05-07T05:31:47;23.20;;;12.67;;
10491;SDS011;5293;51.464;-2.566;2023-05-07T05:34:13;26.70;;;13.33;;
10491;SDS011;5293;51.464;-2.566;2023-05-07T05:36:38;22.87;;;12.60;;
10491;SDS011;5293;51.464;-2.566;2023-05-07T05:39:04;21.43;;;13.00;;
10491;SDS011;5293;51.464;-2.566;2023-05-07T05:41:30;22.73;;;12.00;;
10491;SDS011;5293;51.464;-2.566;2023-05-07T05:43:56;24.47;;;12.90;;
10491;SDS011;5293;51.464;-2.566;2023-05-07T05:46:22;25.37;;;12.43;;
10491;SDS011;5293;51.464;-2.566;2023-05-07T05:48:47;21.63;;;11.97;;
10491;SDS011;5293;51.464;-2.566;2023-05-07T05:51:13;20.30;;;11.87;;
10491;SDS011;5293;51.464;-2.566;2023-05-07T05:53:39;23.10;;;11.93;;
10491;SDS011;5293;51.464;-2.566;2023-05-07T05:56:04;24.30;;;12.17;;
10491;SDS011;5293;51.464;-2.566;2023-05-07T05:58:30;20.63;;;12.53;;
10491;SDS011;5293;51.464;-2.566;2023-05-07T06:00:56;22.20;;;12.50;;
10491;SDS011;5293;51.464;-2.566;2023-05-07T06:03:23;23.10;;;12.27;;
10491;SDS011;5293;51.464;-2.566;2023-05-07T06:05:48;20.80;;;11.70;;
10491;SDS011;5293;51.464;-2.566;2023-05-07T06:08:14;18.93;;;12.30;;
10491;SDS011;5293;51.464;-2.566;2023-05-07T06:10:40;21.13;;;11.73;;
10491;SDS011;5293;51.464;-2.566;2023-05-07T06:13:07;25.57;;;13.00;;
10491;SDS011;5293;51.464;-2.566;2023-05-07T06:15:33;21.90;;;12.20;;
10491;SDS011;5293;51.464;-2.566;2023-05-07T06:17:58;19.17;;;10.20;;
10491;SDS011;5293;51.464;-2.566;2023-05-07T06:20:24;17.80;;;10.17;;
10491;SDS011;5293;51.464;-2.566;2023-05-07T06:22:50;19.50;;;11.13;;
10491;SDS011;5293;51.464;-2.566;2023-05-07T06:25:15;16.87;;;10.00;;
10491;SDS011;5293;51.464;-2.566;2023-05-07T06:27:41;19.87;;;9.70;;
10491;SDS011;5293;51.464;-2.566;2023-05-07T06:30:07;18.40;;;9.37;;
10491;SDS011;5293;51.464;-2.566;2023-05-07T06:32:33;11.97;;;7.80;;
10491;SDS011;5293;51.464;-2.566;2023-05-07T06:34:59;14.40;;;8.23;;
10491;SDS011;5293;51.464;-2.566;2023-05-07T06:37:25;14.37;;;7.10;;
10491;SDS011;5293;51.464;-2.566;2023-05-07T06:39:50;14.93;;;8.10;;
10491;SDS011;5293;51.464;-2.566;2023-05-07T06:42:16;15.60;;;7.40;;
10491;SDS011;5293;51.464;-2.566;2023-05-07T06:44:42;15.37;;;8.03;;
10491;SDS011;5293;51.464;-2.566;2023-05-07T06:47:07;9.80;;;6.87;;
10491;SDS011;5293;51.464;-2.566;2023-05-07T06:49:33;13.70;;;7.30;;
10491;SDS011;5293;51.464;-2.566;2023-05-07T06:51:59;12.77;;;6.83;;
10491;SDS011;5293;51.464;-2.566;2023-05-07T06:54:24;14.23;;;7.50;;
10491;SDS011;5293;51.464;-2.566;2023-05-07T06:56:50;14.23;;;7.57;;
10491;SDS011;5293;51.464;-2.566;2023-05-07T06:59:15;11.67;;;7.00;;
10491;SDS011;5293;51.464;-2.566;2023-05-07T07:01:41;12.13;;;7.10;;
10491;SDS011;5293;51.464;-2.566;2023-05-07T07:04:07;12.07;;;6.57;;
10491;SDS011;5293;51.464;-2.566;2023-05-07T07:06:32;12.43;;;6.50;;
10491;SDS011;5293;51.464;-2.566;2023-05-07T07:08:59;15.53;;;6.50;;
10491;SDS011;5293;51.464;-2.566;2023-05-07T07:11:24;9.33;;;6.23;;
10491;SDS011;5293;51.464;-2.566;2023-05-07T07:13:50;14.73;;;6.93;;
10491;SDS011;5293;51.464;-2.566;2023-05-07T07:16:16;10.80;;;5.57;;
10491;SDS011;5293;51.464;-2.566;2023-05-07T07:18:42;14.13;;;6.40;;
10491;SDS011;5293;51.464;-2.566;2023-05-07T07:21:07;11.60;;;6.40;;
10491;SDS011;5293;51.464;-2.566;2023-05-07T07:23:33;12.17;;;6.40;;
10491;SDS011;5293;51.464;-2.566;2023-05-07T07:25:59;13.60;;;7.17;;
10491;SDS011;5293;51.464;-2.566;2023-05-07T07:28:25;14.30;;;6.73;;
10491;SDS011;5293;51.464;-2.566;2023-05-07T07:30:50;10.33;;;5.57;;
10491;SDS011;5293;51.464;-2.566;2023-05-07T07:33:16;13.33;;;5.77;;
10491;SDS011;5293;51.464;-2.566;2023-05-07T07:35:42;10.03;;;6.17;;
10491;SDS011;5293;51.464;-2.566;2023-05-07T07:38:07;11.13;;;5.60;;
10491;SDS011;5293;51.464;-2.566;2023-05-07T07:40:36;9.80;;;5.03;;
10491;SDS011;5293;51.464;-2.566;2023-05-07T07:43:02;10.43;;;5.20;;
10491;SDS011;5293;51.464;-2.566;2023-05-07T07:45:27;13.77;;;6.53;;
10491;SDS011;5293;51.464;-2.566;2023-05-07T07:47:54;9.17;;;6.20;;
10491;SDS011;5293;51.464;-2.566;2023-05-07T07:50:19;12.67;;;6.17;;
10491;SDS011;5293;51.464;-2.566;2023-05-07T07:52:45;9.70;;;5.67;;
10491;SDS011;5293;51.464;-2.566;2023-05-07T07:55:11;11.50;;;5.70;;
10491;SDS011;5293;51.464;-2.566;2023-05-07T07:57:37;13.53;;;5.87;;
10491;SDS011;5293;51.464;-2.566;2023-05-07T08:00:02;11.70;;;5.00;;
10491;SDS011;5293;51.464;-2.566;2023-05-07T08:02:29;12.63;;;4.90;;
10491;SDS011;5293;51.464;-2.566;2023-05-07T08:04:55;12.63;;;5.03;;
10491;SDS011;5293;51.464;-2.566;2023-05-07T08:07:21;10.50;;;5.03;;
10491;SDS011;5293;51.464;-2.566;2023-05-07T08:09:47;8.93;;;4.10;;
10491;SDS011;5293;51.464;-2.566;2023-05-07T08:12:13;7.37;;;3.57;;
10491;SDS011;5293;51.464;-2.566;2023-05-07T08:14:39;8.57;;;4.37;;
10491;SDS011;5293;51.464;-2.566;2023-05-07T08:17:06;7.40;;;4.53;;
10491;SDS011;5293;51.464;-2.566;2023-05-07T08:19:32;9.47;;;4.37;;
10491;SDS011;5293;51.464;-2.566;2023-05-07T08:21:57;9.77;;;4.43;;
10491;SDS011;5293;51.464;-2.566;2023-05-07T08:24:23;9.33;;;4.33;;
10491;SDS011;5293;51.464;-2.566;2023-05-07T08:26:49;6.50;;;3.73;;
10491;SDS011;5293;51.464;-2.566;2023-05-07T08:29:15;6.53;;;3.30;;
10491;SDS011;5293;51.464;-2.566;2023-05-07T08:31:40;8.30;;;3.17;;
10491;SDS011;5293;51.464;-2.566;2023-05-07T08:34:06;4.30;;;3.00;;
10491;SDS011;5293;51.464;-2.566;2023-05-07T08:36:32;6.70;;;2.23;;
10491;SDS011;5293;51.464;-2.566;2023-05-07T08:38:59;6.70;;;2.70;;
10491;SDS011;5293;51.464;-2.566;2023-05-07T08:41:25;6.97;;;2.33;;
10491;SDS011;5293;51.464;-2.566;2023-05-07T08:43:51;7.83;;;2.87;;
10491;SDS011;5293;51.464;-2.566;2023-05-07T08:46:18;7.83;;;2.43;;
10491;SDS011;5293;51.464;-2.566;2023-05-07T08:48:48;5.37;;;2.47;;
10491;SDS011;5293;51.464;-2.566;2023-05-07T08:51:18;7.33;;;2.30;;
10491;SDS011;5293;51.464;-2.566;2023-05-07T08:53:46;5.67;;;2.80;;
10491;SDS011;5293;51.464;-2.566;2023-05-07T08:56:13;9.37;;;2.40;;
10491;SDS011;5293;51.464;-2.566;2023-05-07T08:58:45;5.60;;;2.00;;
10491;SDS011;5293;51.464;-2.566;2023-05-07T09:01:15;7.23;;;2.90;;
10491;SDS011;5293;51.464;-2.566;2023-05-07T09:03:43;7.80;;;2.90;;
10491;SDS011;5293;51.464;-2.566;2023-05-07T09:06:10;6.23;;;2.57;;
10491;SDS011;5293;51.464;-2.566;2023-05-07T09:08:36;7.73;;;2.93;;
10491;SDS011;5293;51.464;-2.566;2023-05-07T09:11:02;5.77;;;2.47;;
10491;SDS011;5293;51.464;-2.566;2023-05-07T09:13:28;7.77;;;2.27;;
10491;SDS011;5293;51.464;-2.566;2023-05-07T09:15:54;10.60;;;2.27;;
10491;SDS011;5293;51.464;-2.566;2023-05-07T09:18:20;5.33;;;2.20;;
10491;SDS011;5293;51.464;-2.566;2023-05-07T09:20:48;5.27;;;2.60;;
10491;SDS011;5293;51.464;-2.566;2023-05-07T09:23:14;5.00;;;2.40;;
10491;SDS011;5293;51.464;-2.566;2023-05-07T09:25:40;10.60;;;2.77;;
10491;SDS011;5293;51.464;-2.566;2023-05-07T09:28:05;5.40;;;2.40;;
10491;SDS011;5293;51.464;-2.566;2023-05-07T09:30:32;5.07;;;2.40;;
10491;SDS011;5293;51.464;-2.566;2023-05-07T09:32:59;6.33;;;2.77;;
10491;SDS011;5293;51.464;-2.566;2023-05-07T09:35:26;6.07;;;2.73;;
10491;SDS011;5293;51.464;-2.566;2023-05-07T09:37:53;6.67;;;2.43;;
10491;SDS011;5293;51.464;-2.566;2023-05-07T09:40:21;11.03;;;3.77;;
10491;SDS011;5293;51.464;-2.566;2023-05-07T09:42:48;13.23;;;4.03;;
10491;SDS011;5293;51.464;-2.566;2023-05-07T09:45:14;7.53;;;4.03;;
10491;SDS011;5293;51.464;-2.566;2023-05-07T09:47:53;7.07;;;3.70;;
10491;SDS011;5293;51.464;-2.566;2023-05-07T09:50:26;4.63;;;3.57;;
10491;SDS011;5293;51.464;-2.566;2023-05-07T09:52:56;6.47;;;2.73;;
10491;SDS011;5293;51.464;-2.566;2023-05-07T09:55:22;8.53;;;5.10;;
10491;SDS011;5293;51.464;-2.566;2023-05-07T09:57:51;8.40;;;5.57;;
10491;SDS011;5293;51.464;-2.566;2023-05-07T10:00:19;11.77;;;5.57;;
10491;SDS011;5293;51.464;-2.566;2023-05-07T10:02:47;8.00;;;4.67;;
10491;SDS011;5293;51.464;-2.566;2023-05-07T10:05:14;7.97;;;4.63;;
10491;SDS011;5293;51.464;-2.566;2023-05-07T10:07:41;10.00;;;4.67;;
10491;SDS011;5293;51.464;-2.566;2023-05-07T10:10:08;13.17;;;4.57;;
10491;SDS011;5293;51.464;-2.566;2023-05-07T10:12:34;7.77;;;4.37;;
10491;SDS011;5293;51.464;-2.566;2023-05-07T10:15:07;9.97;;;4.10;;
10491;SDS011;5293;51.464;-2.566;2023-05-07T10:17:37;6.97;;;4.03;;
10491;SDS011;5293;51.464;-2.566;2023-05-07T10:20:04;8.83;;;4.00;;
10491;SDS011;5293;51.464;-2.566;2023-05-07T10:22:32;9.00;;;3.50;;
10491;SDS011;5293;51.464;-2.566;2023-05-07T10:25:17;11.87;;;3.77;;
10491;SDS011;5293;51.464;-2.566;2023-05-07T10:27:47;8.90;;;3.63;;
10491;SDS011;5293;51.464;-2.566;2023-05-07T10:30:19;6.27;;;3.10;;
10491;SDS011;5293;51.464;-2.566;2023-05-07T10:32:55;7.53;;;2.53;;
10491;SDS011;5293;51.464;-2.566;2023-05-07T10:35:30;5.37;;;2.87;;
10491;SDS011;5293;51.464;-2.566;2023-05-07T10:38:01;6.60;;;3.13;;
10491;SDS011;5293;51.464;-2.566;2023-05-07T10:40:27;3.27;;;2.60;;
10491;SDS011;5293;51.464;-2.566;2023-05-07T10:42:57;7.97;;;2.97;;
10491;SDS011;5293;51.464;-2.566;2023-05-07T10:45:27;5.80;;;2.50;;
10491;SDS011;5293;51.464;-2.566;2023-05-07T10:48:06;6.20;;;2.60;;
10491;SDS011;5293;51.464;-2.566;2023-05-07T10:50:37;5.50;;;3.23;;
10491;SDS011;5293;51.464;-2.566;2023-05-07T10:55:48;7.37;;;4.20;;
10491;SDS011;5293;51.464;-2.566;2023-05-07T11:00:47;8.63;;;3.70;;
10491;SDS011;5293;51.464;-2.566;2023-05-07T11:03:16;7.67;;;3.50;;
10491;SDS011;5293;51.464;-2.566;2023-05-07T11:05:42;6.27;;;3.73;;
10491;SDS011;5293;51.464;-2.566;2023-05-07T11:08:09;6.27;;;3.67;;
10491;SDS011;5293;51.464;-2.566;2023-05-07T11:10:47;6.03;;;4.10;;
10491;SDS011;5293;51.464;-2.566;2023-05-07T11:13:15;9.03;;;4.43;;
10491;SDS011;5293;51.464;-2.566;2023-05-07T11:15:45;7.43;;;4.00;;
10491;SDS011;5293;51.464;-2.566;2023-05-07T11:18:13;6.23;;;3.17;;
10491;SDS011;5293;51.464;-2.566;2023-05-07T11:20:47;6.77;;;3.67;;
10491;SDS011;5293;51.464;-2.566;2023-05-07T11:26:09;6.93;;;3.30;;
10491;SDS011;5293;51.464;-2.566;2023-05-07T11:28:39;5.97;;;3.37;;
10491;SDS011;5293;51.464;-2.566;2023-05-07T11:31:07;5.67;;;3.73;;
10491;SDS011;5293;51.464;-2.566;2023-05-07T11:33:34;7.27;;;3.40;;
10491;SDS011;5293;51.464;-2.566;2023-05-07T11:36:00;4.67;;;3.33;;
10491;SDS011;5293;51.464;-2.566;2023-05-07T11:38:28;4.70;;;3.07;;
10491;SDS011;5293;51.464;-2.566;2023-05-07T11:40:55;6.40;;;3.10;;
10491;SDS011;5293;51.464;-2.566;2023-05-07T11:43:23;4.30;;;3.33;;
10491;SDS011;5293;51.464;-2.566;2023-05-07T11:45:49;7.53;;;3.77;;
10491;SDS011;5293;51.464;-2.566;2023-05-07T11:48:16;6.43;;;3.70;;
10491;SDS011;5293;51.464;-2.566;2023-05-07T11:50:51;5.40;;;3.20;;
10491;SDS011;5293;51.464;-2.566;2023-05-07T11:53:18;9.77;;;3.40;;
10491;SDS011;5293;51.464;-2.566;2023-05-07T11:55:51;5.33;;;3.50;;
10491;SDS011;5293;51.464;-2.566;2023-05-07T11:58:21;7.40;;;3.73;;
10491;SDS011;5293;51.464;-2.566;2023-05-07T12:00:49;6.60;;;3.83;;
10491;SDS011;5293;51.464;-2.566;2023-05-07T12:03:18;11.20;;;4.43;;
10491;SDS011;5293;51.464;-2.566;2023-05-07T12:05:44;6.47;;;4.13;;
10491;SDS011;5293;51.464;-2.566;2023-05-07T12:08:14;9.27;;;5.03;;
10491;SDS011;5293;51.464;-2.566;2023-05-07T12:10:44;11.27;;;5.30;;
10491;SDS011;5293;51.464;-2.566;2023-05-07T12:13:20;9.87;;;5.70;;
10491;SDS011;5293;51.464;-2.566;2023-05-07T12:15:50;8.43;;;6.67;;
10491;SDS011;5293;51.464;-2.566;2023-05-07T12:18:16;9.50;;;6.33;;
10491;SDS011;5293;51.464;-2.566;2023-05-07T12:20:42;11.07;;;7.23;;
10491;SDS011;5293;51.464;-2.566;2023-05-07T12:23:08;14.27;;;7.33;;
10491;SDS011;5293;51.464;-2.566;2023-05-07T12:25:40;12.03;;;7.00;;
10491;SDS011;5293;51.464;-2.566;2023-05-07T12:28:14;12.10;;;7.20;;
10491;SDS011;5293;51.464;-2.566;2023-05-07T12:30:45;11.07;;;6.50;;
10491;SDS011;5293;51.464;-2.566;2023-05-07T12:33:15;11.77;;;6.73;;
10491;SDS011;5293;51.464;-2.566;2023-05-07T12:35:43;10.87;;;6.80;;
10491;SDS011;5293;51.464;-2.566;2023-05-07T12:38:12;11.77;;;8.17;;
10491;SDS011;5293;51.464;-2.566;2023-05-07T12:40:41;10.97;;;7.50;;
10491;SDS011;5293;51.464;-2.566;2023-05-07T12:43:14;13.53;;;8.53;;
10491;SDS011;5293;51.464;-2.566;2023-05-07T12:45:44;13.87;;;8.13;;
10491;SDS011;5293;51.464;-2.566;2023-05-07T12:48:11;11.23;;;7.73;;
10491;SDS011;5293;51.464;-2.566;2023-05-07T12:50:37;13.97;;;8.17;;
10491;SDS011;5293;51.464;-2.566;2023-05-07T12:53:04;13.00;;;7.10;;
10491;SDS011;5293;51.464;-2.566;2023-05-07T12:55:31;8.83;;;5.20;;
10491;SDS011;5293;51.464;-2.566;2023-05-07T12:57:57;9.10;;;5.17;;
10491;SDS011;5293;51.464;-2.566;2023-05-07T13:00:36;10.23;;;4.60;;
10491;SDS011;5293;51.464;-2.566;2023-05-07T13:03:02;10.77;;;4.40;;
10491;SDS011;5293;51.464;-2.566;2023-05-07T13:05:28;7.83;;;4.03;;
10491;SDS011;5293;51.464;-2.566;2023-05-07T13:07:54;6.43;;;3.47;;
10491;SDS011;5293;51.464;-2.566;2023-05-07T13:10:21;6.03;;;3.67;;
10491;SDS011;5293;51.464;-2.566;2023-05-07T13:12:48;9.27;;;3.67;;
10491;SDS011;5293;51.464;-2.566;2023-05-07T13:15:14;10.07;;;4.23;;
10491;SDS011;5293;51.464;-2.566;2023-05-07T13:17:40;8.53;;;3.90;;
10491;SDS011;5293;51.464;-2.566;2023-05-07T13:20:08;6.73;;;3.10;;
10491;SDS011;5293;51.464;-2.566;2023-05-07T13:22:34;5.93;;;2.70;;
10491;SDS011;5293;51.464;-2.566;2023-05-07T13:25:01;5.03;;;3.20;;
10491;SDS011;5293;51.464;-2.566;2023-05-07T13:27:26;6.17;;;3.10;;
10491;SDS011;5293;51.464;-2.566;2023-05-07T13:29:52;6.30;;;2.90;;
10491;SDS011;5293;51.464;-2.566;2023-05-07T13:32:17;8.97;;;2.57;;
10491;SDS011;5293;51.464;-2.566;2023-05-07T13:34:43;7.03;;;2.33;;
10491;SDS011;5293;51.464;-2.566;2023-05-07T13:37:09;5.40;;;2.43;;
10491;SDS011;5293;51.464;-2.566;2023-05-07T13:39:35;8.83;;;3.10;;
10491;SDS011;5293;51.464;-2.566;2023-05-07T13:42:01;4.50;;;2.13;;
10491;SDS011;5293;51.464;-2.566;2023-05-07T13:44:27;8.17;;;2.77;;
10491;SDS011;5293;51.464;-2.566;2023-05-07T13:46:52;3.37;;;2.00;;
10491;SDS011;5293;51.464;-2.566;2023-05-07T13:49:18;4.57;;;2.10;;
10491;SDS011;5293;51.464;-2.566;2023-05-07T13:51:44;4.27;;;2.03;;
10491;SDS011;5293;51.464;-2.566;2023-05-07T13:54:10;4.90;;;1.80;;
10491;SDS011;5293;51.464;-2.566;2023-05-07T13:56:36;4.47;;;1.80;;
10491;SDS011;5293;51.464;-2.566;2023-05-07T13:59:02;7.33;;;1.93;;
10491;SDS011;5293;51.464;-2.566;2023-05-07T14:01:28;8.10;;;2.03;;
10491;SDS011;5293;51.464;-2.566;2023-05-07T14:03:53;6.27;;;1.60;;
10491;SDS011;5293;51.464;-2.566;2023-05-07T14:06:20;5.13;;;1.97;;
10491;SDS011;5293;51.464;-2.566;2023-05-07T14:08:46;5.73;;;1.90;;
10491;SDS011;5293;51.464;-2.566;2023-05-07T14:11:12;4.10;;;1.80;;
10491;SDS011;5293;51.464;-2.566;2023-05-07T14:13:38;4.23;;;1.80;;
10491;SDS011;5293;51.464;-2.566;2023-05-07T14:16:03;3.50;;;1.50;;
10491;SDS011;5293;51.464;-2.566;2023-05-07T14:18:29;5.27;;;1.93;;
10491;SDS011;5293;51.464;-2.566;2023-05-07T14:20:55;4.00;;;1.50;;
10491;SDS011;5293;51.464;-2.566;2023-05-07T14:23:21;2.03;;;1.70;;
10491;SDS011;5293;51.464;-2.566;2023-05-07T14:25:51;6.00;;;1.60;;
10491;SDS011;5293;51.464;-2.566;2023-05-07T14:28:18;3.87;;;1.47;;
10491;SDS011;5293;51.464;-2.566;2023-05-07T14:30:43;3.97;;;1.60;;
10491;SDS011;5293;51.464;-2.566;2023-05-07T14:33:09;3.93;;;1.60;;
10491;SDS011;5293;51.464;-2.566;2023-05-07T14:35:35;4.93;;;2.07;;
10491;SDS011;5293;51.464;-2.566;2023-05-07T14:38:01;2.97;;;1.67;;